Time;durP1;ratioP1;P1;durP2;ratioP2;P2;SDS_P1;SDS_P2;PMS_P1;PMS_P2;Temp;Humidity;BMP_temperature;BMP_pressure;BME280_temperature;BME280_humidity;BME280_pressure;Samples;Min_cycle;Max_cycle;Signal;HPM_P1;HPM_P2
2021/01/30 10:28:07;;;;;;;4.95;1.25;;;;;;;20.31;37.67;99468.94;5105963;27;979783;-69
2021/01/30 10:30:33;;;;;;;5.78;0.98;;;;;;;20.24;38.40;99473.63;5109535;28;20119;-69
2021/01/30 10:32:59;;;;;;;8.57;1.42;;;;;;;20.29;37.60;99465.59;5113444;28;20428;-69
2021/01/30 10:35:32;;;;;;;2.90;0.90;;;;;;;20.28;37.46;99466.66;5095666;28;20031;-69
2021/01/30 10:38:33;;;;;;;2.72;0.70;;;;;;;20.31;37.48;99475.25;5128011;28;20046;-69
2021/01/30 10:41:01;;;;;;;8.13;1.05;;;;;;;20.31;36.80;99468.94;5012157;28;20324;-68
2021/01/30 10:43:30;;;;;;;3.35;0.88;;;;;;;20.41;37.02;99480.28;5031926;28;20437;-67
2021/01/30 10:45:59;;;;;;;4.68;0.98;;;;;;;20.47;36.35;99481.28;5046130;28;20029;-66
2021/01/30 10:48:30;;;;;;;5.57;1.10;;;;;;;20.45;36.73;99472.50;5050358;28;20521;-66
2021/01/30 10:51:07;;;;;;;5.25;1.10;;;;;;;20.42;36.22;99471.03;5023934;28;20048;-67
2021/01/30 10:53:37;;;;;;;5.45;1.30;;;;;;;20.37;35.85;99468.94;5025611;28;20026;-68
2021/01/30 10:56:15;;;;;;;3.17;1.08;;;;;;;20.20;35.82;99456.00;5030034;28;20060;-68
2021/01/30 10:58:42;;;;;;;4.20;1.10;;;;;;;20.15;36.14;99462.09;5040918;28;20025;-68
2021/01/30 11:01:25;;;;;;;2.28;0.80;;;;;;;20.17;35.91;99461.91;5052859;28;20483;-68
2021/01/30 11:04:03;;;;;;;7.25;1.10;;;;;;;20.10;35.75;99457.28;5014774;28;20103;-69
2021/01/30 11:06:43;;;;;;;6.95;1.05;;;;;;;20.09;35.86;99450.16;5039855;28;20045;-69
2021/01/30 11:09:12;;;;;;;15.95;1.35;;;;;;;20.14;35.87;99444.88;5015959;28;20396;-68
2021/01/30 11:11:37;;;;;;;4.38;1.00;;;;;;;20.17;35.71;99456.44;5030193;28;20061;-68
2021/01/30 11:14:15;;;;;;;4.22;1.02;;;;;;;20.26;35.31;99458.69;5056834;28;20466;-69
2021/01/30 11:16:42;;;;;;;7.95;1.13;;;;;;;20.31;35.59;99458.03;5095116;28;20055;-69
2021/01/30 11:19:22;;;;;;;3.00;1.00;;;;;;;20.38;35.28;99453.41;5093710;28;20104;-69
2021/01/30 11:21:49;;;;;;;4.07;0.82;;;;;;;20.40;35.32;99448.56;5126780;28;20048;-68
2021/01/30 11:24:26;;;;;;;3.67;0.90;;;;;;;20.44;35.25;99441.63;5128034;28;20027;-69
2021/01/30 11:26:52;;;;;;;7.68;1.20;;;;;;;20.49;34.70;99436.38;5105160;28;20032;-74
2021/01/30 11:29:42;;;;;;;4.60;1.13;;;;;;;20.25;34.96;99448.00;5105991;28;20119;-71
2021/01/30 11:32:12;;;;;;;6.25;1.45;;;;;;;20.25;34.73;99442.53;5106541;28;20024;-69
2021/01/30 11:34:38;;;;;;;7.72;0.95;;;;;;;20.23;34.59;99437.31;5108053;28;20027;-71
2021/01/30 11:37:04;;;;;;;4.60;0.90;;;;;;;20.16;34.89;99438.41;5106994;28;20077;-70
2021/01/30 11:39:31;;;;;;;4.88;1.00;;;;;;;20.17;35.16;99437.34;5072299;28;20138;-70
2021/01/30 11:41:57;;;;;;;1.40;0.70;;;;;;;20.16;34.89;99433.78;5091003;28;20027;-71
2021/01/30 11:44:23;;;;;;;2.97;1.15;;;;;;;20.15;35.16;99423.91;5091437;28;20028;-70
2021/01/30 11:46:49;;;;;;;4.70;0.82;;;;;;;20.27;34.97;99434.97;5087195;28;20357;-71
2021/01/30 11:49:15;;;;;;;3.80;0.90;;;;;;;20.35;34.92;99426.56;5090017;28;20028;-71
2021/01/30 11:51:41;;;;;;;4.32;0.82;;;;;;;20.36;34.91;99422.75;5092651;28;20508;-71
2021/01/30 11:54:06;;;;;;;2.15;0.70;;;;;;;20.39;34.76;99414.13;5090708;28;20032;-68
2021/01/30 11:56:32;;;;;;;3.75;0.98;;;;;;;20.50;34.08;99408.03;5092577;28;20157;-72
2021/01/30 11:59:01;;;;;;;4.10;1.00;;;;;;;20.55;35.13;99410.91;5071109;28;20032;-69
2021/01/30 12:01:27;;;;;;;5.40;1.00;;;;;;;20.47;35.24;99419.34;5094477;28;20071;-67
2021/01/30 12:03:52;;;;;;;2.78;0.82;;;;;;;20.27;34.92;99418.59;5093827;28;20044;-70
2021/01/30 12:06:18;;;;;;;6.80;0.82;;;;;;;20.23;35.53;99422.81;5090868;28;20103;-69
2021/01/30 12:08:43;;;;;;;4.00;0.73;;;;;;;20.36;35.17;99417.31;5094906;28;20059;-70
2021/01/30 12:11:11;;;;;;;4.55;1.00;;;;;;;20.21;35.63;99405.84;5090154;28;20059;-69
2021/01/30 12:13:37;;;;;;;5.03;0.90;;;;;;;20.19;35.74;99405.22;5091023;28;20115;-69
2021/01/30 12:16:04;;;;;;;5.15;1.30;;;;;;;20.26;35.93;99412.31;5088361;28;20051;-70
2021/01/30 12:18:29;;;;;;;7.40;1.00;;;;;;;20.19;35.63;99397.03;5091640;28;20023;-70
2021/01/30 12:20:55;;;;;;;2.38;0.85;;;;;;;20.26;35.73;99411.47;5094363;28;20035;-69
2021/01/30 12:23:21;;;;;;;2.35;0.65;;;;;;;20.27;35.54;99407.69;5091413;28;20034;-70
2021/01/30 12:25:46;;;;;;;2.85;0.60;;;;;;;20.30;35.67;99412.69;5092574;28;20350;-69
2021/01/30 12:28:24;;;;;;;3.65;0.77;;;;;;;20.34;35.72;99408.50;5111389;28;20622;-71
2021/01/30 12:30:49;;;;;;;1.52;0.70;;;;;;;20.42;35.41;99400.91;5107128;28;20036;-69
2021/01/30 12:33:16;;;;;;;4.38;0.60;;;;;;;20.44;35.26;99400.69;5112221;28;20032;-69
2021/01/30 12:35:41;;;;;;;1.20;0.60;;;;;;;20.35;35.08;99393.78;5112786;28;20447;-72
2021/01/30 12:38:07;;;;;;;7.07;0.82;;;;;;;20.23;35.13;99398.28;5077750;28;20035;-71
2021/01/30 12:40:35;;;;;;;4.43;1.08;;;;;;;20.16;35.33;99383.84;5107292;28;20067;-70
2021/01/30 12:43:01;;;;;;;3.40;0.80;;;;;;;20.21;35.74;99397.66;5097311;28;20042;-70
2021/01/30 12:45:27;;;;;;;3.58;0.82;;;;;;;20.09;36.08;99381.97;5110119;28;20028;-69
2021/01/30 12:47:52;;;;;;;6.15;1.38;;;;;;;20.10;36.91;99389.09;5090455;28;20353;-70
2021/01/30 12:50:20;;;;;;;9.25;1.13;;;;;;;20.03;36.76;99391.03;5112243;28;20059;-71
2021/01/30 12:52:46;;;;;;;4.60;0.90;;;;;;;20.08;36.18;99396.66;5109330;28;20024;-68
2021/01/30 12:55:12;;;;;;;3.10;0.90;;;;;;;20.08;36.16;99380.28;5112543;28;20078;-68
2021/01/30 12:57:37;;;;;;;3.53;0.90;;;;;;;20.16;36.52;99389.28;5112645;28;20060;-68
2021/01/30 13:00:08;;;;;;;5.60;1.17;;;;;;;20.17;36.73;99380.88;5111469;28;20141;-68
2021/01/30 13:02:33;;;;;;;3.42;1.00;;;;;;;20.17;36.63;99375.44;5110699;28;20030;-68
2021/01/30 13:04:59;;;;;;;4.38;0.73;;;;;;;20.23;36.61;99381.91;5110352;28;20031;-68
2021/01/30 13:07:24;;;;;;;2.70;0.95;;;;;;;20.27;36.52;99391.31;5105309;28;20118;-69
2021/01/30 13:09:50;;;;;;;2.97;0.93;;;;;;;20.19;36.23;99383.41;5110788;28;20032;-69
2021/01/30 13:12:17;;;;;;;2.08;0.77;;;;;;;20.14;35.62;99382.13;5093849;28;20460;-68
2021/01/30 13:14:42;;;;;;;4.60;1.25;;;;;;;20.14;36.35;99398.50;5109697;28;20345;-68
2021/01/30 13:17:11;;;;;;;3.58;0.93;;;;;;;20.09;36.86;99395.59;5111469;28;20037;-68
2021/01/30 13:19:37;;;;;;;3.60;1.20;;;;;;;20.02;36.10;99405.72;5111857;28;20023;-68
2021/01/30 13:22:03;;;;;;;7.43;1.52;;;;;;;19.96;36.16;99401.09;5108588;28;20033;-67
2021/01/30 13:24:28;;;;;;;5.75;1.30;;;;;;;19.95;36.33;99385.81;5107954;28;20114;-67
2021/01/30 13:26:54;;;;;;;4.63;0.90;;;;;;;19.94;36.21;99395.03;5095853;28;20122;-67
2021/01/30 13:29:20;;;;;;;6.97;1.00;;;;;;;20.12;35.32;99397.06;5110254;28;20134;-66
2021/01/30 13:31:47;;;;;;;6.10;1.17;;;;;;;20.60;34.99;99391.97;5107367;28;20027;-64
2021/01/30 13:34:14;;;;;;;7.75;1.88;;;;;;;20.89;35.62;99389.66;5113549;28;20361;-64
2021/01/30 13:36:40;;;;;;;8.95;1.30;;;;;;;21.06;35.95;99389.94;5106738;28;20123;-67
2021/01/30 13:39:05;;;;;;;8.43;1.73;;;;;;;21.19;35.56;99389.81;5094203;28;20074;-67
2021/01/30 13:41:32;;;;;;;5.45;1.35;;;;;;;21.31;36.14;99394.34;5093148;28;20057;-69
2021/01/30 13:43:58;;;;;;;5.68;1.83;;;;;;;21.09;36.44;99395.78;5108498;28;20039;-72
2021/01/30 13:46:24;;;;;;;3.95;0.95;;;;;;;20.76;37.18;99395.22;5095375;28;20039;-68
2021/01/30 13:48:49;;;;;;;7.35;0.95;;;;;;;20.57;36.55;99397.88;5113531;28;20345;-70
2021/01/30 13:51:15;;;;;;;5.63;1.17;;;;;;;20.33;38.02;99398.66;5113172;28;20122;-70
2021/01/30 13:53:41;;;;;;;7.18;1.38;;;;;;;20.15;38.40;99388.44;5092091;28;20024;-71
2021/01/30 13:56:06;;;;;;;4.30;0.93;;;;;;;19.94;38.76;99392.31;5110612;28;20118;-71
2021/01/30 13:58:32;;;;;;;4.07;1.00;;;;;;;20.13;37.88;99391.38;5091730;28;20100;-66
2021/01/30 14:00:57;;;;;;;6.88;1.40;;;;;;;20.24;38.64;99389.84;5110613;28;20053;-65
2021/01/30 14:03:23;;;;;;;3.75;0.90;;;;;;;20.57;37.73;99395.16;5107735;28;20080;-65
2021/01/30 14:05:49;;;;;;;4.07;0.88;;;;;;;20.80;37.79;99396.44;5107795;28;20110;-65
2021/01/30 14:08:14;;;;;;;13.43;1.58;;;;;;;20.93;37.38;99386.25;5108683;28;20033;-64
2021/01/30 14:10:40;;;;;;;6.60;1.00;;;;;;;21.20;36.68;99386.88;5109982;28;20037;-64
2021/01/30 14:13:05;;;;;;;26.02;12.02;;;;;;;21.11;37.30;99381.91;5110369;28;20446;-66
2021/01/30 14:15:31;;;;;;;36.72;17.23;;;;;;;21.22;36.68;99379.28;5093152;28;20052;-66
2021/01/30 14:18:00;;;;;;;43.63;24.27;;;;;;;21.01;34.16;99383.25;5090571;28;20089;-67
2021/01/30 14:20:25;;;;;;;42.13;25.00;;;;;;;20.65;35.60;99373.03;5093542;28;20425;-71
2021/01/30 14:22:51;;;;;;;54.35;29.63;;;;;;;20.39;35.73;99374.03;5109061;28;20084;-68
2021/01/30 14:25:17;;;;;;;49.22;30.35;;;;;;;20.39;36.24;99384.09;5092919;28;20054;-68
2021/01/30 14:27:43;;;;;;;57.38;35.13;;;;;;;20.23;36.77;99384.63;5095099;28;20525;-68
2021/01/30 14:30:09;;;;;;;58.75;35.78;;;;;;;19.97;37.22;99386.41;5094244;28;20059;-68
2021/01/30 14:32:34;;;;;;;65.93;38.47;;;;;;;19.99;37.47;99395.25;5078442;28;20054;-67
2021/01/30 14:35:00;;;;;;;66.82;41.63;;;;;;;20.26;37.36;99392.38;5093934;28;20063;-69
2021/01/30 14:37:26;;;;;;;69.20;41.42;;;;;;;20.49;36.90;99384.50;5111279;28;20027;-68
2021/01/30 14:39:51;;;;;;;71.90;43.15;;;;;;;20.64;36.76;99385.00;5111959;28;20106;-69
2021/01/30 14:42:17;;;;;;;71.22;44.58;;;;;;;20.83;36.59;99379.63;5094834;28;20081;-69
2021/01/30 14:44:46;;;;;;;74.93;46.42;;;;;;;21.01;36.08;99376.97;5112418;28;20418;-69
2021/01/30 14:47:13;;;;;;;74.82;45.28;;;;;;;21.14;36.10;99381.44;5090244;28;20061;-69
2021/01/30 14:49:39;;;;;;;69.05;42.90;;;;;;;21.16;35.76;99380.16;5110793;28;20039;-69
2021/01/30 14:52:04;;;;;;;63.70;41.05;;;;;;;21.05;35.95;99380.91;5094502;28;20066;-69
2021/01/30 14:54:30;;;;;;;63.40;39.58;;;;;;;20.86;35.93;99379.19;5075174;28;20038;-69
2021/01/30 14:56:55;;;;;;;65.93;41.15;;;;;;;20.68;36.81;99388.16;5097975;28;20118;-69
2021/01/30 14:59:21;;;;;;;65.03;41.67;;;;;;;20.42;37.39;99379.06;5107790;28;20027;-69
2021/01/30 15:01:47;;;;;;;58.33;37.17;;;;;;;20.17;37.10;99385.50;5093080;28;20061;-69
2021/01/30 15:04:14;;;;;;;59.50;38.22;;;;;;;20.02;37.74;99389.34;5112268;28;20492;-69
2021/01/30 15:06:48;;;;;;;58.03;37.30;;;;;;;19.83;38.43;99384.81;5076662;28;20047;-69
2021/01/30 15:09:25;;;;;;;57.90;36.40;;;;;;;19.96;38.61;99384.75;5097563;28;20036;-69
2021/01/30 15:11:54;;;;;;;54.65;35.30;;;;;;;20.22;38.00;99388.41;5108204;28;20020;-69
2021/01/30 15:14:20;;;;;;;54.17;35.47;;;;;;;20.41;38.07;99384.75;5098443;28;20028;-69
2021/01/30 15:16:48;;;;;;;52.45;33.83;;;;;;;20.58;37.62;99385.91;5113045;28;20118;-68
2021/01/30 15:19:15;;;;;;;52.10;32.50;;;;;;;20.72;36.84;99379.28;5111808;28;20042;-68
2021/01/30 15:21:41;;;;;;;50.08;31.65;;;;;;;20.76;34.84;99387.03;5094774;28;20034;-68
2021/01/30 15:24:07;;;;;;;49.10;31.05;;;;;;;20.92;35.55;99383.75;5112980;28;20059;-68
2021/01/30 15:26:37;;;;;;;46.20;29.45;;;;;;;19.80;31.70;99401.59;5095343;28;20122;-69
2021/01/30 15:29:03;;;;;;;46.95;28.90;;;;;;;20.64;34.02;99390.47;5110424;28;20136;-68
2021/01/30 15:31:32;;;;;;;49.65;31.75;;;;;;;21.07;34.15;99392.44;5111762;28;20085;-67
2021/01/30 15:33:58;;;;;;;52.50;33.35;;;;;;;20.94;34.24;99392.56;5079053;28;20034;-67
2021/01/30 15:36:24;;;;;;;49.60;31.67;;;;;;;20.61;35.12;99393.63;5110516;28;20023;-69
2021/01/30 15:38:49;;;;;;;60.30;33.72;;;;;;;20.23;36.28;99390.09;5108949;28;20460;-68
2021/01/30 15:41:15;;;;;;;50.17;30.23;;;;;;;19.91;35.95;99390.03;5091808;28;20035;-68
2021/01/30 15:43:41;;;;;;;52.17;31.70;;;;;;;19.81;37.77;99397.81;5076060;28;20043;-68
2021/01/30 15:46:06;;;;;;;48.85;29.83;;;;;;;19.94;37.94;99397.75;5093539;28;20031;-69
2021/01/30 15:48:32;;;;;;;48.05;29.20;;;;;;;20.12;37.16;99397.88;5096868;28;20051;-69
2021/01/30 15:50:57;;;;;;;42.60;26.88;;;;;;;20.32;37.33;99394.22;5113050;28;20055;-70
2021/01/30 15:53:23;;;;;;;42.75;26.80;;;;;;;20.55;36.95;99393.69;5081985;28;20031;-69
2021/01/30 15:55:49;;;;;;;43.20;26.02;;;;;;;20.68;36.81;99397.19;5096235;28;20331;-69
2021/01/30 15:58:14;;;;;;;39.30;24.15;;;;;;;20.38;34.34;99398.81;5098643;28;20341;-69
2021/01/30 16:00:42;;;;;;;16.30;10.60;;;;;;;16.47;31.80;99402.50;5111322;28;20032;-69
2021/01/30 16:03:08;;;;;;;37.40;21.80;;;;;;;19.58;33.57;99397.47;5094891;28;20031;-69
2021/01/30 16:05:33;;;;;;;32.33;19.58;;;;;;;20.61;33.98;99393.63;5110126;28;20125;-67
2021/01/30 16:07:59;;;;;;;31.05;19.27;;;;;;;20.84;33.69;99381.31;5092214;28;20097;-71
2021/01/30 16:10:24;;;;;;;30.63;18.90;;;;;;;21.07;33.73;99386.97;5085122;28;20110;-69
2021/01/30 16:12:50;;;;;;;33.03;18.65;;;;;;;20.61;33.97;99382.72;5111860;28;20346;-72
2021/01/30 16:15:18;;;;;;;27.10;17.20;;;;;;;20.51;34.24;99398.78;5110959;28;20062;-72
2021/01/30 16:17:44;;;;;;;28.30;17.35;;;;;;;20.39;35.30;99390.41;5112990;28;20464;-73
2021/01/30 16:20:10;;;;;;;29.27;16.75;;;;;;;20.22;36.30;99391.13;5114744;28;20126;-71
2021/01/30 16:22:36;;;;;;;23.75;15.10;;;;;;;20.02;37.23;99389.34;5099305;28;20031;-71
2021/01/30 16:25:02;;;;;;;28.50;16.67;;;;;;;19.82;37.67;99399.50;5097144;28;20038;-71
2021/01/30 16:27:28;;;;;;;30.20;16.33;;;;;;;19.82;38.92;99400.34;5096173;28;20051;-73
2021/01/30 16:29:53;;;;;;;26.40;15.00;;;;;;;18.64;38.98;99390.38;5112436;28;20023;-75
2021/01/30 16:32:19;;;;;;;27.60;14.77;;;;;;;19.46;39.29;99389.91;5113450;28;20327;-75
2021/01/30 16:34:45;;;;;;;23.70;14.75;;;;;;;19.52;38.75;99380.91;5091463;28;20422;-73
2021/01/30 16:37:14;;;;;;;24.25;14.90;;;;;;;19.87;40.15;99394.25;5092258;28;20359;-73
2021/01/30 16:39:44;;;;;;;22.67;14.88;;;;;;;20.01;41.28;99393.13;5073379;28;20066;-73
2021/01/30 16:42:10;;;;;;;23.23;14.18;;;;;;;20.20;42.83;99382.34;5093401;28;20039;-73
2021/01/30 16:44:35;;;;;;;24.33;14.15;;;;;;;20.28;43.10;99384.78;5093151;28;20106;-74
2021/01/30 16:47:01;;;;;;;26.65;14.85;;;;;;;20.31;41.74;99381.63;5080717;28;20043;-74
2021/01/30 16:49:27;;;;;;;22.13;13.32;;;;;;;20.53;42.24;99385.72;5106843;28;20057;-76
2021/01/30 16:51:52;;;;;;;22.38;13.07;;;;;;;20.39;41.30;99378.66;5091234;28;20438;-73
2021/01/30 16:54:18;;;;;;;21.58;12.52;;;;;;;19.38;38.91;99382.00;5081698;28;20035;-69
2021/01/30 16:56:43;;;;;;;16.63;11.00;;;;;;;19.71;41.20;99379.19;5113243;28;20034;-73
2021/01/30 16:59:09;;;;;;;20.83;10.20;;;;;;;19.72;42.61;99382.75;5108928;28;20028;-73
2021/01/30 17:01:36;;;;;;;20.20;10.27;;;;;;;19.59;43.57;99382.78;5091625;28;20118;-72
2021/01/30 17:04:01;;;;;;;20.60;10.18;;;;;;;19.64;43.04;99385.72;5103606;28;20050;-71
2021/01/30 17:06:27;;;;;;;18.58;10.38;;;;;;;19.67;43.47;99382.56;5110132;28;20876;-72
2021/01/30 17:08:53;;;;;;;21.15;10.77;;;;;;;19.87;42.25;99386.06;5108991;28;20119;-73
2021/01/30 17:11:18;;;;;;;18.92;10.23;;;;;;;20.12;40.87;99384.25;5113985;28;20161;-70
2021/01/30 17:13:44;;;;;;;18.65;10.90;;;;;;;20.13;41.08;99366.81;5095888;28;20046;-75
2021/01/30 17:18:15;;;;;;;11.13;7.35;;;;;;;18.73;41.69;99380.16;5131018;27;20369;-70
2021/01/30 17:20:41;;;;;;;15.05;8.50;;;;;;;18.66;41.19;99372.00;5110582;28;20034;-73
2021/01/30 17:23:06;;;;;;;12.73;7.78;;;;;;;18.69;41.64;99377.00;5105464;28;20038;-74
2021/01/30 17:25:32;;;;;;;13.43;8.13;;;;;;;18.77;41.58;99384.97;5106349;28;20416;-74
2021/01/30 17:27:57;;;;;;;12.77;7.18;;;;;;;18.76;41.34;99383.28;5129045;28;20034;-75
2021/01/30 17:30:23;;;;;;;13.02;7.63;;;;;;;18.65;42.23;99370.31;5111326;28;20032;-75
2021/01/30 17:32:49;;;;;;;10.50;7.00;;;;;;;18.60;42.76;99378.22;5112857;28;20042;-74
2021/01/30 17:35:15;;;;;;;12.55;7.50;;;;;;;18.53;42.94;99378.22;5110887;28;20027;-73
2021/01/30 17:37:41;;;;;;;14.93;6.95;;;;;;;18.53;43.47;99377.38;5128199;28;20028;-77
2021/01/30 17:40:07;;;;;;;15.18;6.90;;;;;;;18.50;43.24;99383.25;5125365;28;20024;-75
2021/01/30 17:42:33;;;;;;;13.60;7.00;;;;;;;18.57;43.74;99384.09;5109490;28;20076;-72
2021/01/30 17:44:58;;;;;;;10.75;6.82;;;;;;;18.54;44.14;99376.34;5129219;28;20031;-72
2021/01/30 17:47:24;;;;;;;12.30;6.38;;;;;;;18.51;44.80;99379.47;5131691;28;20050;-76
2021/01/30 17:49:49;;;;;;;12.13;6.38;;;;;;;18.56;43.56;99376.97;5110237;28;20445;-74
2021/01/30 17:52:15;;;;;;;10.98;6.05;;;;;;;18.58;42.18;99369.44;5130396;28;20023;-74
2021/01/30 17:54:40;;;;;;;9.15;5.65;;;;;;;18.59;41.48;99387.44;5108212;28;20054;-75
2021/01/30 17:57:06;;;;;;;9.95;5.47;;;;;;;18.64;42.19;99374.06;5123235;27;20042;-72
2021/01/30 17:59:32;;;;;;;13.20;5.97;;;;;;;18.71;42.60;99385.81;5077094;28;20457;-72
2021/01/30 18:01:57;;;;;;;10.63;5.45;;;;;;;18.74;42.33;99382.66;5128656;28;20023;-72
2021/01/30 18:04:23;;;;;;;10.43;5.35;;;;;;;18.72;42.25;99371.16;5111712;28;20429;-71
2021/01/30 18:06:48;;;;;;;10.32;5.40;;;;;;;18.69;41.33;99371.56;5113739;28;20036;-73
2021/01/30 18:09:14;;;;;;;9.68;5.38;;;;;;;18.70;41.58;99375.13;5075017;28;20032;-73
2021/01/30 18:11:40;;;;;;;11.43;6.07;;;;;;;18.69;41.67;99373.47;5093500;28;20060;-73
2021/01/30 18:14:06;;;;;;;12.93;6.28;;;;;;;18.65;42.60;99364.88;5114901;28;20070;-72
2021/01/30 18:16:32;;;;;;;24.10;9.68;;;;;;;18.69;43.67;99374.28;5085741;28;20165;-72
2021/01/30 18:18:58;;;;;;;25.23;9.63;;;;;;;18.66;43.00;99372.00;5090232;28;20031;-73
2021/01/30 18:21:24;;;;;;;21.02;9.35;;;;;;;18.70;42.57;99375.97;5092074;28;20035;-73
2021/01/30 18:23:49;;;;;;;23.80;9.93;;;;;;;18.69;41.76;99370.72;5096416;27;20046;-72
2021/01/30 18:26:15;;;;;;;35.88;12.43;;;;;;;18.71;41.40;99371.34;5094425;28;20038;-73
2021/01/30 18:28:41;;;;;;;40.92;16.10;;;;;;;18.75;41.47;99373.44;5070083;28;20349;-73
2021/01/30 18:31:06;;;;;;;61.03;21.67;;;;;;;18.80;42.04;99362.75;5110060;28;20142;-72
2021/01/30 18:33:32;;;;;;;70.63;28.73;;;;;;;18.83;42.86;99367.81;5109852;28;20027;-73
2021/01/30 18:35:57;;;;;;;82.68;28.67;;;;;;;18.84;42.71;99374.94;5108990;28;20114;-73
2021/01/30 18:38:23;;;;;;;82.10;32.80;;;;;;;18.81;42.77;99364.47;5111812;28;20032;-73
2021/01/30 18:40:48;;;;;;;83.75;35.70;;;;;;;18.79;42.37;99368.41;5114794;28;20059;-72
2021/01/30 18:43:14;;;;;;;96.65;36.72;;;;;;;18.75;42.39;99370.72;5115002;28;20046;-73
2021/01/30 18:45:40;;;;;;;96.65;37.95;;;;;;;18.70;42.65;99362.34;5077697;28;20080;-74
2021/01/30 18:48:06;;;;;;;91.53;36.55;;;;;;;18.69;43.76;99360.69;5112557;28;20391;-73
2021/01/30 18:50:31;;;;;;;140.05;51.55;;;;;;;18.57;45.27;99359.59;5092089;28;20568;-73
2021/01/30 18:52:57;;;;;;;138.13;54.20;;;;;;;18.60;45.31;99364.59;5074949;28;20623;-73
2021/01/30 18:55:23;;;;;;;108.10;44.17;;;;;;;18.63;44.08;99361.50;5093010;28;20047;-73
2021/01/30 18:57:49;;;;;;;106.30;42.05;;;;;;;18.64;43.77;99365.91;5113902;28;20455;-73
2021/01/30 19:00:17;;;;;;;117.47;42.90;;;;;;;18.61;42.82;99358.13;5115393;28;20118;-73
2021/01/30 19:02:43;;;;;;;115.15;45.30;;;;;;;18.65;42.54;99367.59;5079993;28;20024;-73
2021/01/30 19:05:09;;;;;;;112.45;44.10;;;;;;;18.70;43.10;99356.06;5115926;28;20073;-73
2021/01/30 19:07:36;;;;;;;105.20;44.90;;;;;;;18.75;43.10;99375.34;5074038;27;20063;-73
2021/01/30 19:10:02;;;;;;;114.55;47.38;;;;;;;18.75;43.84;99369.88;5107124;27;20042;-74
2021/01/30 19:12:28;;;;;;;112.28;45.65;;;;;;;18.65;42.79;99356.72;5106569;28;20034;-73
2021/01/30 19:14:53;;;;;;;111.97;45.13;;;;;;;18.74;42.57;99363.59;5116309;28;20408;-72
2021/01/30 19:17:19;;;;;;;117.15;46.63;;;;;;;18.60;43.93;99359.16;5111762;28;20054;-73
2021/01/30 19:19:45;;;;;;;112.05;45.15;;;;;;;18.47;45.18;99361.88;5063557;28;20047;-73
2021/01/30 19:22:10;;;;;;;113.55;45.88;;;;;;;18.41;45.78;99363.53;5111656;28;20046;-73
2021/01/30 19:24:37;;;;;;;130.73;52.88;;;;;;;18.53;45.67;99366.50;5109245;27;20035;-71
2021/01/30 19:27:03;;;;;;;113.35;47.75;;;;;;;18.57;44.43;99365.03;5073637;28;20067;-70
2021/01/30 19:29:29;;;;;;;124.07;53.80;;;;;;;18.60;44.81;99367.34;5114159;27;20356;-71
2021/01/30 19:31:54;;;;;;;121.47;49.17;;;;;;;18.60;44.08;99370.06;5113218;28;20444;-70
2021/01/30 19:34:20;;;;;;;110.13;47.78;;;;;;;18.60;43.68;99362.72;5115303;28;20093;-70
2021/01/30 19:36:45;;;;;;;99.93;43.17;;;;;;;18.65;43.63;99370.31;5097472;28;20069;-70
2021/01/30 19:39:11;;;;;;;110.55;47.85;;;;;;;18.70;43.00;99365.06;5091182;28;20116;-70
2021/01/30 19:41:37;;;;;;;112.05;47.67;;;;;;;18.80;41.90;99367.38;5072954;28;20465;-70
2021/01/30 19:44:06;;;;;;;108.07;47.17;;;;;;;18.81;41.47;99378.06;5074619;28;20485;-70
2021/01/30 19:46:31;;;;;;;106.30;48.30;;;;;;;18.80;41.51;99368.19;5075617;28;20093;-70
2021/01/30 19:48:57;;;;;;;108.47;48.92;;;;;;;18.79;41.65;99366.53;5094563;28;20027;-70
2021/01/30 19:51:22;;;;;;;103.80;46.60;;;;;;;18.80;42.22;99367.38;5095204;28;20032;-70
2021/01/30 19:53:48;;;;;;;115.40;48.47;;;;;;;18.70;41.70;99362.34;5113690;27;20039;-70
2021/01/30 19:56:14;;;;;;;139.32;59.97;;;;;;;18.78;43.09;99377.63;5115927;27;20562;-70
2021/01/30 19:58:39;;;;;;;135.50;63.03;;;;;;;18.76;43.27;99366.13;5112431;27;20038;-70
2021/01/30 20:01:05;;;;;;;131.80;59.60;;;;;;;18.77;43.50;99368.63;5110676;27;21504;-70
2021/01/30 20:03:31;;;;;;;154.23;67.53;;;;;;;18.69;43.04;99351.69;5091191;28;20127;-70
2021/01/30 20:05:56;;;;;;;137.50;63.40;;;;;;;18.78;42.47;99364.84;5085312;28;20124;-70
2021/01/30 20:08:22;;;;;;;140.35;61.85;;;;;;;18.82;41.78;99371.59;5105405;28;20036;-72
2021/01/30 20:10:47;;;;;;;134.45;61.28;;;;;;;18.82;41.85;99376.19;5086377;28;20035;-72
2021/01/30 20:13:14;;;;;;;141.13;60.22;;;;;;;18.87;42.17;99374.50;5101068;28;20042;-70
2021/01/30 20:15:39;;;;;;;154.45;68.97;;;;;;;18.94;42.34;99383.50;5093548;28;20032;-70
2021/01/30 20:18:05;;;;;;;157.45;72.55;;;;;;;18.98;42.50;99385.78;5105479;28;20066;-72
2021/01/30 20:20:31;;;;;;;153.93;68.50;;;;;;;18.93;43.60;99379.09;5106195;28;20032;-72
2021/01/30 20:22:56;;;;;;;142.88;64.82;;;;;;;18.92;41.85;99371.97;5102305;27;20045;-72
2021/01/30 20:25:24;;;;;;;146.48;68.18;;;;;;;18.83;42.49;99356.91;5093898;27;20122;-71
2021/01/30 20:27:50;;;;;;;148.70;69.10;;;;;;;18.91;41.75;99364.84;5077549;28;20043;-71
2021/01/30 20:30:20;;;;;;;148.75;67.28;;;;;;;18.90;43.51;99356.91;5095190;28;20031;-72
2021/01/30 20:32:46;;;;;;;138.52;67.28;;;;;;;18.92;43.16;99358.38;5112331;28;20034;-73
2021/01/30 20:35:12;;;;;;;135.88;66.45;;;;;;;18.94;43.25;99359.00;5092703;28;20027;-72
2021/01/30 20:37:37;;;;;;;150.55;65.30;;;;;;;18.96;42.54;99366.09;5108881;27;20249;-71
2021/01/30 20:40:04;;;;;;;130.35;61.60;;;;;;;18.96;42.23;99355.22;5105740;28;20104;-73
2021/01/30 20:42:29;;;;;;;134.38;62.47;;;;;;;18.95;42.16;99370.72;5088888;28;20028;-72
2021/01/30 20:44:55;;;;;;;128.15;60.50;;;;;;;18.92;42.32;99371.97;5108808;28;20103;-72
2021/01/30 20:47:20;;;;;;;119.10;59.13;;;;;;;18.94;42.55;99367.16;5093680;28;20031;-71
2021/01/30 20:49:46;;;;;;;130.98;59.10;;;;;;;19.02;42.31;99370.72;5077090;28;20035;-73
2021/01/30 20:52:11;;;;;;;123.05;58.70;;;;;;;19.05;43.25;99370.31;5112859;28;20032;-71
2021/01/30 20:54:37;;;;;;;121.45;55.92;;;;;;;19.04;42.85;99368.63;5088598;28;20100;-70
2021/01/30 20:57:03;;;;;;;114.82;54.15;;;;;;;19.04;42.31;99376.81;5106806;28;20352;-71
2021/01/30 20:59:28;;;;;;;111.70;52.90;;;;;;;18.98;42.62;99364.00;5091089;28;20333;-71
2021/01/30 21:01:55;;;;;;;108.85;50.72;;;;;;;18.98;42.02;99374.91;5110901;28;20019;-73
2021/01/30 21:04:21;;;;;;;108.28;51.10;;;;;;;18.93;42.65;99370.94;5112734;28;20024;-72
2021/01/30 21:06:47;;;;;;;112.43;52.25;;;;;;;18.88;43.12;99365.28;5092097;28;20031;-72
2021/01/30 21:09:13;;;;;;;108.38;50.40;;;;;;;18.77;43.60;99363.19;5109209;28;20051;-72
2021/01/30 21:11:39;;;;;;;99.25;49.55;;;;;;;18.80;43.66;99373.66;5111069;28;20436;-71
2021/01/30 21:14:06;;;;;;;94.50;44.80;;;;;;;18.74;43.91;99369.06;5087985;28;20677;-72
2021/01/30 21:16:32;;;;;;;91.22;46.05;;;;;;;18.76;43.06;99364.22;5081255;28;20454;-72
2021/01/30 21:18:59;;;;;;;95.20;43.17;;;;;;;18.75;42.75;99376.16;5048096;28;20075;-71
2021/01/30 21:21:25;;;;;;;85.82;43.65;;;;;;;18.76;42.61;99375.13;5068299;28;20033;-70
2021/01/30 21:23:50;;;;;;;89.30;43.05;;;;;;;18.80;42.52;99375.53;5050804;28;20058;-71
2021/01/30 21:26:18;;;;;;;85.72;41.20;;;;;;;18.78;43.02;99372.19;5043900;28;20036;-71
2021/01/30 21:28:43;;;;;;;76.97;37.78;;;;;;;18.78;43.27;99370.31;5070502;28;20466;-71
2021/01/30 21:31:09;;;;;;;78.40;38.95;;;;;;;18.80;43.56;99372.81;5045884;28;20032;-72
2021/01/30 21:33:34;;;;;;;77.93;37.22;;;;;;;18.79;42.98;99371.13;5067994;28;20067;-71
2021/01/30 21:36:00;;;;;;;70.57;35.47;;;;;;;18.77;42.82;99365.91;5064905;28;20036;-70
2021/01/30 21:38:25;;;;;;;67.22;33.97;;;;;;;18.74;42.78;99363.59;5071392;28;20044;-71
2021/01/30 21:40:51;;;;;;;68.00;34.08;;;;;;;18.76;42.55;99360.66;5071402;28;20033;-70
2021/01/30 21:43:17;;;;;;;61.53;30.83;;;;;;;18.76;43.09;99358.78;5070489;28;20028;-70
2021/01/30 21:45:43;;;;;;;57.88;29.10;;;;;;;18.83;42.17;99366.97;5072717;28;20052;-71
2021/01/30 21:48:09;;;;;;;60.17;29.83;;;;;;;18.82;41.91;99355.25;5066121;28;20067;-70